Ride Results

CurrowanEndurance Ride (04-08-2018)
Ride distance: 80.0 km

Outcomes - CurrowanEndurance Ride (04-08-2018)
Division No. of Entries Retired / DNE Completed Withdrawn Ineligible V/O Percentage Completed
HW 7 - 5 - - 2 71.43%
MW 20 - 20 - - - 100.00%
LW 16 - 15 - - 1 93.75%
JN 10 - 9 - - 1 90.00%
Totals 53 - 49 - - 4 92.45%
Results - CurrowanEndurance Ride (04-08-2018)
No. Rider Horse Place Time Leg Speeds Total
Km/Hr
H/R bpm
Heavyweight
40 Con Bouzianis Conderosa Zaheera 1 (BC) 4:37:00 16.3, 18.4 17.33 32, 39, 42 (Avg:40)
69 Sue Warren Warren Park Mishaala 2 5:18:00 15.1, 14.9 15.09 36, 42, 42 (Avg:42)
53 Steven Noble Sbara Teddy 3 6:47:00 11.3, 12.2 11.79 38, 42, 44 (Avg:43)
2 Alan Lindsay Kintamani Katarina 4 7:49:00 11.2, 9.4 10.23 37, 40, 44 (Avg:42)
36 Stuart Lymbery Aloha Typic 5 8:02:00 10.3, 9.5 9.96 27, 38, 38 (Avg:38)
34 Stephen Deering Anzac Lame L2 0:00:00 13.1, 8.1 - 36, 36, 51 (Avg:43)
54 Marty Moran Dane Lame L1 0:00:00 10.9 - 32, 42 (Avg:42)
Middleweight
9 Ellen Vine Sangah Rose of Lilani 1 5:20:00 14.4, 15.5 15.00 36, 40, 54 (Avg:47)
4 Katrina Newitt Wybalena Lodge Prince Harry 2 5:24:00 14.3, 15.2 14.81 36, 44, 59 (Avg:51)
50 Erica Allan Waugoola Creek Onyx 3 (BC) 5:25:00 14.6, 14.9 14.77 36, 43, 44 (Avg:43)
29 Brett Willis Spirit 4 5:47:00 14.0, 13.6 13.83 44, 36, 40 (Avg:38)
59 Ian Curtis Rosevale Park Rashid 5 6:05:00 13.0, 13.2 13.15 32, 42, 48 (Avg:45)
18 Linda Tanian Castlebar Avalanche 6 6:09:00 12.1, 14.0 13.01 28, 40, 48 (Avg:44)
19 Kristie Taprell Castlebar Belair 6 6:09:00 12.1, 14.0 13.01 32, 38, 45 (Avg:41)
30 Sharyn Coulston Razorback Annatole 8 6:12:00 12.7, 13.0 12.90 31, 37, 43 (Avg:40)
56 Tayla Hadzi Oso Lee 9 6:33:00 12.6, 11.7 12.21 31, 41, 44 (Avg:42)
32 Amelia Napier Al-Marah Red Cardinal 9 6:33:00 12.6, 11.7 12.21 37, 38, 48 (Avg:43)
44 Mark Norton Zemzem Raya 11 6:59:00 13.0, 10.2 11.46 38, 45, 53 (Avg:49)
43 Tom Bouzianis Conderosa Fiona 12 7:50:00 9.9, 10.4 10.21 36, 42, 48 (Avg:45)
15 Rodney Curry Mountain Breeze Mingha 12 7:50:00 10.8, 9.6 10.21 36, 36, 38 (Avg:37)
42 Edward Fernon Conderosa Ambrosio 12 7:50:00 9.9, 10.4 10.21 32, 38, 46 (Avg:42)
45 Kristie Wright Cooroora Allyjah 12 7:50:00 10.8, 9.6 10.21 37, 36, 45 (Avg:40)
37 Anne Lymbery Baranne Tu-Shay 16 8:02:00 10.3, 9.5 9.96 32, 28, 52 (Avg:40)
6 John Symons Bell Barry Blue Diamond 17 8:06:00 10.0, 9.6 9.88 35, 36, 52 (Avg:44)
16 Bev Turner Coco Chanel 17 8:06:00 10.9, 9.0 9.88 34, 42, 48 (Avg:45)
49 Bruce Carter Mitanni Hairan 19 8:13:00 10.0, 9.4 9.74 34, 44, 44 (Avg:44)
35 Rowena Robinson Karumba Nazrani 19 8:13:00 10.0, 9.4 9.74 36, 38, 52 (Avg:45)
Lightweight
13 Fia Hasko-Stewart Blake's Heaven Venus 1 5:19:00 15.5, 14.5 15.05 36, 42, 45 (Avg:43)
33 Susan Woodward Jon De Le Hanna 2 5:28:00 15.0, 14.2 14.63 37, 38, 52 (Avg:45)
41 Leanne Holz Orizhan 3 5:47:00 14.0, 13.6 13.83 40, 36, 49 (Avg:42)
10 Victoria Bice Coolinda Park Sheeza Doll 4 6:04:00 12.9, 13.4 13.19 37, 40, 42 (Avg:41)
46 Lauren Roper Wickwood Badira 4 6:04:00 13.0, 13.3 13.19 38, 42, 48 (Avg:45)
47 Noni Seagrim Charadia Zignzag 4 (BC) 6:04:00 13.0, 13.3 13.19 36, 40, 40 (Avg:40)
12 Elizabeth Moir Bullio Duchess 7 6:12:00 12.7, 13.0 12.90 32, 36, 34 (Avg:35)
58 Emma Dimech Oso Bettina 8 6:33:00 12.6, 11.7 12.21 30, 46, 41 (Avg:43)
52 Kim Noble El-Masri Sadah 9 6:47:00 11.3, 12.2 11.79 38, 40, 40 (Avg:40)
14 Talea Hasko-Stewart Blake's Heaven Bombora 10 6:59:00 11.9, 11.0 11.46 33, 40, 48 (Avg:44)
7 Julie Hooper A'Landell Enigma 10 6:59:00 12.1, 10.8 11.46 30, 38, 42 (Avg:40)
17 Mary Hollingsworth Valinor Park Sonnet 12 7:02:00 12.9, 10.1 11.37 35, 37, 40 (Avg:38)
3 Courtney Chapman Kintamani Kimbra 13 7:49:00 11.2, 9.4 10.23 30, 42, 44 (Avg:43)
38 Sarah Lymbery Garonne Park Elmo 14 8:02:00 10.3, 9.5 9.96 30, 40, 44 (Avg:42)
31 Vicki Mathew Penwisk Sharmarra 15 8:13:00 10.0, 9.4 9.74 30, 36, 48 (Avg:42)
20 Irene Adams Renbury Cedar Lame L1 0:00:00 9.0 - 36, 42 (Avg:42)
Junior
51 Alison Noble Warrawee Naaziq 1 5:24:00 14.1, 15.5 14.81 31, 47, 59 (Avg:53)
39 Levi Robinson Karumba Beamish 2 5:46:00 13.6, 14.1 13.87 32, 36, 48 (Avg:42)
5 Kaitlyn Mercieca JRK Spyder 3 6:04:00 12.9, 13.4 13.19 32, 38, 45 (Avg:41)
1 Emma Cole Chelleason Challerisma Gold 4 6:12:00 12.7, 13.0 12.90 32, 45, 42 (Avg:43)
11 Poppy Kettlewell Oso Nicholas 5 6:33:00 12.6, 11.7 12.21 41, 36, 38 (Avg:37)
57 Tahnaya Mercieca Oso Evita 5 (BC) 6:33:00 12.6, 11.7 12.21 32, 41, 41 (Avg:41)
55 Celia Hodgson Blake's Heaven Adventuress 7 6:59:00 11.9, 11.0 11.46 47, 52, 48 (Avg:50)
8 Madison Hooper Khalidah Tasneem 7 6:59:00 12.1, 10.8 11.46 30, 34, 43 (Avg:38)
68 Lily Wheeler Kalody Park Karisma 7 6:59:00 11.9, 11.0 11.46 38, 48, 44 (Avg:46)
48 Jasmine Zimmerman Trian Moir Jasper Lame L1 0:00:00 11.9 - 28, 44 (Avg:44)